Talcottville, New York
Current Conditions -  °F | °C
As of 11:53 AM on Tuesday 21 Oct 2014 (Local Time) from KRME Reporting Station
Overcast Overcast  
Wind Chill: 51°   Ceiling: 4800
Heat Index: 51°   Visibility: 10mi
Dew Point: 47°   Wind: 7mph
Humidity: 86%   Direction: 120°ESE
Pressure: 29.9"   Gusts: NA
Location:  43.4691°N, 75.3509°W
Report Text: KRME 211553Z 12006KT 10SM OVC048 11/08 A2990 RMK AO2 SLP125 T01060083
Loading
Personal Weather Stations






























Interactive Weather Map
Tropical Storm Tracking
New forecast layout! Learn more

10-Day Weather Forecast

Advertisements
Track Severe Weather on mobile